KGPT

Gulfport-Biloxi International Airport

Gulfport, Mississippi, USA
METAR KGPT 160315Z 30007KT 10SM SCT028 OVC048 11/09 A3013 RMK AO2 T01110089
Observed Flight Rules
Dec-16 @ 03:15 UTC (21 minutes ago) Visual Flight Rules
Wind Visibility Clouds
300° at 7 knots 10 miles
  • Scattered at 2,800' AGL
  • Overcast at 4,800' AGL
Temperatures Readings
Current 11°C / 52°F
Dewpoint 9°C / 48°F
Humidity 88%
Altimeter 30.13" Hg
Pressure 1020 hPa
Elevation 14
METAR KGPT 160315Z 30007KT 10SM SCT028 OVC048 11/09 A3013 RMK AO2 T01110089
Observed Flight Rules
Dec-16 @ 03:15 UTC
(21 minutes ago)
VFR
Wind Visibility
300° at 7 knots 10 miles
Clouds
  • Scattered at 2,800' AGL
  • Overcast at 4,800' AGL
Temperature Dewpoint
11°C / 52°F 9°C / 48°F
Humidity Altimeter Pressure
88% 30.13" Hg 1020 hPa